sensor_id;sensor_type;location;lat;lon;timestamp;pressure;altitude;pressure_sealevel;temperature;humidity
4705;BME280;2366;51.332;6.610;2024-03-23T00:52:09;100874.94;;;11.74;77.23
4705;BME280;2366;51.332;6.610;2024-03-23T00:54:34;100876.09;;;11.70;78.60
4705;BME280;2366;51.332;6.610;2024-03-23T00:57:00;100864.75;;;11.39;77.21
4705;BME280;2366;51.332;6.610;2024-03-23T00:59:25;100879.31;;;11.03;77.41
4705;BME280;2366;51.332;6.610;2024-03-23T01:01:54;100881.69;;;10.63;77.59
4705;BME280;2366;51.332;6.610;2024-03-23T01:04:19;100867.31;;;10.67;78.01
4705;BME280;2366;51.332;6.610;2024-03-23T01:06:45;100880.72;;;10.95;78.59
4705;BME280;2366;51.332;6.610;2024-03-23T01:09:10;100885.44;;;10.89;77.50
4705;BME280;2366;51.332;6.610;2024-03-23T01:11:36;100873.41;;;10.84;77.56
4705;BME280;2366;51.332;6.610;2024-03-23T01:14:02;100877.91;;;10.98;78.37
4705;BME280;2366;51.332;6.610;2024-03-23T01:16:28;100870.63;;;10.71;77.42
4705;BME280;2366;51.332;6.610;2024-03-23T01:18:53;100855.59;;;10.86;77.76
4705;BME280;2366;51.332;6.610;2024-03-23T01:21:18;100849.84;;;11.08;77.56
4705;BME280;2366;51.332;6.610;2024-03-23T01:23:44;100859.41;;;11.25;77.96
4705;BME280;2366;51.332;6.610;2024-03-23T01:26:10;100853.81;;;11.44;77.71
4705;BME280;2366;51.332;6.610;2024-03-23T01:28:35;100852.03;;;11.30;77.98
4705;BME280;2366;51.332;6.610;2024-03-23T01:31:00;100845.66;;;11.47;77.80
4705;BME280;2366;51.332;6.610;2024-03-23T01:33:26;100844.13;;;11.57;77.48
4705;BME280;2366;51.332;6.610;2024-03-23T01:35:51;100833.03;;;11.65;77.50
4705;BME280;2366;51.332;6.610;2024-03-23T01:38:16;100838.81;;;11.71;77.76
4705;BME280;2366;51.332;6.610;2024-03-23T01:40:42;100822.88;;;11.71;78.62
4705;BME280;2366;51.332;6.610;2024-03-23T01:43:08;100828.06;;;11.73;77.86
4705;BME280;2366;51.332;6.610;2024-03-23T01:45:34;100827.69;;;11.79;78.60
4705;BME280;2366;51.332;6.610;2024-03-23T01:50:32;100829.19;;;11.83;77.82
4705;BME280;2366;51.332;6.610;2024-03-23T01:53:02;100833.19;;;11.90;77.41
4705;BME280;2366;51.332;6.610;2024-03-23T01:55:28;100841.06;;;11.92;77.49
4705;BME280;2366;51.332;6.610;2024-03-23T01:57:56;100817.13;;;11.92;77.17
4705;BME280;2366;51.332;6.610;2024-03-23T02:00:21;100807.19;;;11.96;76.95
4705;BME280;2366;51.332;6.610;2024-03-23T02:02:48;100816.97;;;11.95;77.46
4705;BME280;2366;51.332;6.610;2024-03-23T02:05:14;100810.06;;;11.78;77.17
4705;BME280;2366;51.332;6.610;2024-03-23T02:07:40;100809.09;;;11.79;77.20
4705;BME280;2366;51.332;6.610;2024-03-23T02:10:10;100803.38;;;11.85;77.76
4705;BME280;2366;51.332;6.610;2024-03-23T02:12:36;100789.56;;;11.80;77.24
4705;BME280;2366;51.332;6.610;2024-03-23T02:15:02;100795.50;;;11.84;77.17
4705;BME280;2366;51.332;6.610;2024-03-23T02:17:29;100784.63;;;11.74;77.20
4705;BME280;2366;51.332;6.610;2024-03-23T02:19:55;100775.38;;;11.67;77.21
4705;BME280;2366;51.332;6.610;2024-03-23T02:22:21;100791.25;;;11.81;77.84
4705;BME280;2366;51.332;6.610;2024-03-23T02:24:46;100778.56;;;11.72;77.09
4705;BME280;2366;51.332;6.610;2024-03-23T02:27:12;100785.69;;;11.71;78.01
4705;BME280;2366;51.332;6.610;2024-03-23T02:29:37;100791.00;;;11.71;77.42
4705;BME280;2366;51.332;6.610;2024-03-23T02:32:02;100796.94;;;11.75;77.51
4705;BME280;2366;51.332;6.610;2024-03-23T02:34:28;100793.66;;;11.71;78.24
4705;BME280;2366;51.332;6.610;2024-03-23T02:36:53;100782.72;;;11.76;77.62
4705;BME280;2366;51.332;6.610;2024-03-23T02:39:18;100785.31;;;11.78;78.02
4705;BME280;2366;51.332;6.610;2024-03-23T02:41:44;100796.09;;;11.75;77.12
4705;BME280;2366;51.332;6.610;2024-03-23T02:44:09;100802.47;;;11.72;77.43
4705;BME280;2366;51.332;6.610;2024-03-23T02:46:37;100817.72;;;11.83;77.70
4705;BME280;2366;51.332;6.610;2024-03-23T02:49:03;100823.31;;;11.78;76.94
4705;BME280;2366;51.332;6.610;2024-03-23T02:51:29;100818.78;;;11.80;77.54
4705;BME280;2366;51.332;6.610;2024-03-23T02:53:55;100812.19;;;11.86;78.67
4705;BME280;2366;51.332;6.610;2024-03-23T02:56:20;100814.22;;;11.82;77.23
4705;BME280;2366;51.332;6.610;2024-03-23T02:58:45;100814.00;;;11.85;77.16
4705;BME280;2366;51.332;6.610;2024-03-23T03:01:11;100811.56;;;11.82;76.70
4705;BME280;2366;51.332;6.610;2024-03-23T03:03:36;100811.75;;;11.79;77.25
4705;BME280;2366;51.332;6.610;2024-03-23T03:06:02;100799.34;;;11.80;77.69
4705;BME280;2366;51.332;6.610;2024-03-23T03:08:27;100791.06;;;11.84;77.24
4705;BME280;2366;51.332;6.610;2024-03-23T03:10:52;100791.16;;;11.83;76.73
4705;BME280;2366;51.332;6.610;2024-03-23T03:13:18;100796.38;;;11.84;77.56
4705;BME280;2366;51.332;6.610;2024-03-23T03:15:44;100795.31;;;11.87;77.45
4705;BME280;2366;51.332;6.610;2024-03-23T03:18:09;100784.78;;;11.85;77.86
4705;BME280;2366;51.332;6.610;2024-03-23T03:20:41;100789.94;;;11.88;77.51
4705;BME280;2366;51.332;6.610;2024-03-23T03:23:07;100794.66;;;11.83;76.94
4705;BME280;2366;51.332;6.610;2024-03-23T03:25:33;100800.63;;;11.87;77.35
4705;BME280;2366;51.332;6.610;2024-03-23T03:27:59;100789.72;;;11.91;77.14
4705;BME280;2366;51.332;6.610;2024-03-23T03:30:24;100787.28;;;11.88;77.12
4705;BME280;2366;51.332;6.610;2024-03-23T03:32:53;100789.94;;;11.88;77.62
4705;BME280;2366;51.332;6.610;2024-03-23T03:35:18;100800.63;;;11.87;77.33
4705;BME280;2366;51.332;6.610;2024-03-23T03:37:43;100792.97;;;11.82;77.45
4705;BME280;2366;51.332;6.610;2024-03-23T03:40:09;100796.38;;;11.84;77.21
4705;BME280;2366;51.332;6.610;2024-03-23T03:42:36;100797.41;;;11.82;77.15
4705;BME280;2366;51.332;6.610;2024-03-23T03:45:02;100796.47;;;11.83;78.02
4705;BME280;2366;51.332;6.610;2024-03-23T03:47:29;100794.50;;;11.72;78.09
4705;BME280;2366;51.332;6.610;2024-03-23T03:49:55;100805.44;;;11.67;77.50
4705;BME280;2366;51.332;6.610;2024-03-23T03:52:20;100802.88;;;11.66;77.41
4705;BME280;2366;51.332;6.610;2024-03-23T03:54:45;100803.06;;;11.63;77.46
4705;BME280;2366;51.332;6.610;2024-03-23T03:57:11;100800.28;;;11.64;77.12
4705;BME280;2366;51.332;6.610;2024-03-23T03:59:37;100796.72;;;11.65;76.63
4705;BME280;2366;51.332;6.610;2024-03-23T04:02:02;100793.03;;;11.54;77.11
4705;BME280;2366;51.332;6.610;2024-03-23T04:04:27;100789.91;;;11.47;76.34
4705;BME280;2366;51.332;6.610;2024-03-23T04:07:02;100805.56;;;11.51;77.66
4705;BME280;2366;51.332;6.610;2024-03-23T04:09:28;100798.53;;;11.50;78.34
4705;BME280;2366;51.332;6.610;2024-03-23T04:11:53;100796.84;;;11.49;77.98
4705;BME280;2366;51.332;6.610;2024-03-23T04:14:18;100799.50;;;11.49;78.39
4705;BME280;2366;51.332;6.610;2024-03-23T04:16:44;100795.63;;;11.41;78.10
4705;BME280;2366;51.332;6.610;2024-03-23T04:19:09;100783.22;;;11.41;78.11
4705;BME280;2366;51.332;6.610;2024-03-23T04:21:37;100780.25;;;11.31;77.42
4705;BME280;2366;51.332;6.610;2024-03-23T04:24:02;100779.72;;;11.26;78.12
4705;BME280;2366;51.332;6.610;2024-03-23T04:26:28;100774.31;;;11.28;78.40
4705;BME280;2366;51.332;6.610;2024-03-23T04:28:53;100778.13;;;11.24;77.45
4705;BME280;2366;51.332;6.610;2024-03-23T04:31:19;100774.03;;;11.18;78.47
4705;BME280;2366;51.332;6.610;2024-03-23T04:33:44;100777.91;;;11.27;78.24
4705;BME280;2366;51.332;6.610;2024-03-23T04:36:09;100778.97;;;11.24;78.69
4705;BME280;2366;51.332;6.610;2024-03-23T04:38:35;100780.38;;;11.30;78.16
4705;BME280;2366;51.332;6.610;2024-03-23T04:41:01;100786.91;;;11.24;78.39
4705;BME280;2366;51.332;6.610;2024-03-23T04:43:27;100779.34;;;11.33;77.70
4705;BME280;2366;51.332;6.610;2024-03-23T04:45:52;100771.53;;;11.29;78.58
4705;BME280;2366;51.332;6.610;2024-03-23T04:48:21;100757.81;;;11.23;76.98
4705;BME280;2366;51.332;6.610;2024-03-23T04:50:47;100758.03;;;11.20;78.37
4705;BME280;2366;51.332;6.610;2024-03-23T04:53:13;100759.84;;;11.05;78.88
4705;BME280;2366;51.332;6.610;2024-03-23T04:55:38;100760.13;;;11.15;77.88
4705;BME280;2366;51.332;6.610;2024-03-23T04:58:04;100775.84;;;11.18;78.97
4705;BME280;2366;51.332;6.610;2024-03-23T05:00:29;100762.03;;;11.13;77.89
4705;BME280;2366;51.332;6.610;2024-03-23T05:02:54;100771.47;;;11.17;78.44
4705;BME280;2366;51.332;6.610;2024-03-23T05:05:20;100766.91;;;11.19;77.93
4705;BME280;2366;51.332;6.610;2024-03-23T05:07:45;100778.88;;;11.26;78.50
4705;BME280;2366;51.332;6.610;2024-03-23T05:10:10;100772.59;;;11.27;78.15
4705;BME280;2366;51.332;6.610;2024-03-23T05:12:39;100780.38;;;11.30;77.97
4705;BME280;2366;51.332;6.610;2024-03-23T05:15:06;100775.84;;;11.18;78.25
4705;BME280;2366;51.332;6.610;2024-03-23T05:17:32;100785.78;;;11.28;78.67
4705;BME280;2366;51.332;6.610;2024-03-23T05:19:58;100780.38;;;11.30;78.95
4705;BME280;2366;51.332;6.610;2024-03-23T05:22:23;100789.75;;;11.36;78.26
4705;BME280;2366;51.332;6.610;2024-03-23T05:24:49;100791.09;;;11.28;78.59
4705;BME280;2366;51.332;6.610;2024-03-23T05:27:14;100794.41;;;11.32;77.83
4705;BME280;2366;51.332;6.610;2024-03-23T05:29:40;100793.81;;;11.27;78.64
4705;BME280;2366;51.332;6.610;2024-03-23T05:32:05;100795.91;;;11.36;78.53
4705;BME280;2366;51.332;6.610;2024-03-23T05:34:31;100796.47;;;11.41;78.63
4705;BME280;2366;51.332;6.610;2024-03-23T05:36:56;100793.34;;;11.35;77.80
4705;BME280;2366;51.332;6.610;2024-03-23T05:39:22;100786.63;;;11.29;77.58
4705;BME280;2366;51.332;6.610;2024-03-23T05:41:48;100797.06;;;11.32;78.34
4705;BME280;2366;51.332;6.610;2024-03-23T05:44:13;100792.03;;;11.27;77.39
4705;BME280;2366;51.332;6.610;2024-03-23T05:46:40;100783.72;;;11.19;78.37
4705;BME280;2366;51.332;6.610;2024-03-23T05:49:05;100796.22;;;11.17;77.81
4705;BME280;2366;51.332;6.610;2024-03-23T05:51:31;100792.13;;;11.12;77.71
4705;BME280;2366;51.332;6.610;2024-03-23T05:53:56;100793.75;;;11.00;78.23
4705;BME280;2366;51.332;6.610;2024-03-23T05:56:22;100793.28;;;10.93;78.38
4705;BME280;2366;51.332;6.610;2024-03-23T05:58:47;100798.41;;;10.96;77.42
4705;BME280;2366;51.332;6.610;2024-03-23T06:01:13;100799.53;;;10.92;77.08
4705;BME280;2366;51.332;6.610;2024-03-23T06:03:39;100807.69;;;10.89;78.14
4705;BME280;2366;51.332;6.610;2024-03-23T06:06:04;100814.75;;;10.88;78.13
4705;BME280;2366;51.332;6.610;2024-03-23T06:08:30;100809.38;;;10.90;77.96
4705;BME280;2366;51.332;6.610;2024-03-23T06:10:55;100812.13;;;10.88;78.19
4705;BME280;2366;51.332;6.610;2024-03-23T06:13:21;100803.41;;;11.01;77.46
4705;BME280;2366;51.332;6.610;2024-03-23T06:15:50;100811.09;;;11.05;77.17
4705;BME280;2366;51.332;6.610;2024-03-23T06:18:15;100798.50;;;11.09;77.87
4705;BME280;2366;51.332;6.610;2024-03-23T06:20:40;100805.59;;;11.23;78.17
4705;BME280;2366;51.332;6.610;2024-03-23T06:23:06;100807.28;;;11.38;77.33
4705;BME280;2366;51.332;6.610;2024-03-23T06:25:31;100803.69;;;11.39;77.97
4705;BME280;2366;51.332;6.610;2024-03-23T06:27:57;100814.75;;;11.60;78.15
4705;BME280;2366;51.332;6.610;2024-03-23T06:30:23;100795.50;;;11.42;76.53
4705;BME280;2366;51.332;6.610;2024-03-23T06:32:49;100801.47;;;11.60;77.04
4705;BME280;2366;51.332;6.610;2024-03-23T06:35:14;100798.13;;;11.71;77.30
4705;BME280;2366;51.332;6.610;2024-03-23T06:37:39;100801.69;;;11.84;77.80
4705;BME280;2366;51.332;6.610;2024-03-23T06:40:07;100809.34;;;12.16;77.03
4705;BME280;2366;51.332;6.610;2024-03-23T06:42:34;100806.69;;;12.94;78.18
4705;BME280;2366;51.332;6.610;2024-03-23T06:45:00;100819.50;;;14.37;75.28
4705;BME280;2366;51.332;6.610;2024-03-23T06:47:25;100815.19;;;15.28;73.66
4705;BME280;2366;51.332;6.610;2024-03-23T06:49:51;100818.63;;;15.96;72.07
4705;BME280;2366;51.332;6.610;2024-03-23T06:52:16;100824.69;;;16.83;73.02
4705;BME280;2366;51.332;6.610;2024-03-23T06:54:41;100831.06;;;17.13;72.37
4705;BME280;2366;51.332;6.610;2024-03-23T06:57:07;100829.38;;;16.91;70.05
4705;BME280;2366;51.332;6.610;2024-03-23T06:59:32;100826.88;;;17.61;69.19
4705;BME280;2366;51.332;6.610;2024-03-23T07:01:57;100828.56;;;17.72;70.71
4705;BME280;2366;51.332;6.610;2024-03-23T07:04:23;100838.03;;;17.76;70.56
4705;BME280;2366;51.332;6.610;2024-03-23T07:06:48;100829.53;;;18.11;68.58
4705;BME280;2366;51.332;6.610;2024-03-23T07:09:13;100826.69;;;18.13;69.87
4705;BME280;2366;51.332;6.610;2024-03-23T07:11:39;100832.19;;;18.60;69.14
4705;BME280;2366;51.332;6.610;2024-03-23T07:14:04;100821.72;;;18.66;68.41
4705;BME280;2366;51.332;6.610;2024-03-23T07:16:30;100829.91;;;18.84;65.97
4705;BME280;2366;51.332;6.610;2024-03-23T07:18:55;100827.59;;;19.09;67.08
4705;BME280;2366;51.332;6.610;2024-03-23T07:21:20;100821.63;;;19.15;67.21
4705;BME280;2366;51.332;6.610;2024-03-23T07:23:46;100808.03;;;19.17;67.74
4705;BME280;2366;51.332;6.610;2024-03-23T07:26:11;100812.13;;;19.21;66.28
4705;BME280;2366;51.332;6.610;2024-03-23T07:28:37;100820.66;;;19.44;64.84
4705;BME280;2366;51.332;6.610;2024-03-23T07:31:04;100820.69;;;18.97;59.91
4705;BME280;2366;51.332;6.610;2024-03-23T07:33:30;100817.16;;;19.34;65.79
4705;BME280;2366;51.332;6.610;2024-03-23T07:35:56;100812.69;;;19.80;64.45
4705;BME280;2366;51.332;6.610;2024-03-23T07:38:21;100816.78;;;20.20;61.14
4705;BME280;2366;51.332;6.610;2024-03-23T07:40:47;100825.56;;;20.22;58.38
4705;BME280;2366;51.332;6.610;2024-03-23T07:43:15;100821.63;;;20.52;53.41
4705;BME280;2366;51.332;6.610;2024-03-23T07:45:40;100818.78;;;20.18;55.21
4705;BME280;2366;51.332;6.610;2024-03-23T07:48:06;100824.19;;;21.40;55.97
4705;BME280;2366;51.332;6.610;2024-03-23T07:50:31;100822.72;;;21.97;45.82
4705;BME280;2366;51.332;6.610;2024-03-23T07:52:57;100823.94;;;22.10;50.61
4705;BME280;2366;51.332;6.610;2024-03-23T07:55:22;100823.28;;;22.33;47.02
4705;BME280;2366;51.332;6.610;2024-03-23T07:57:47;100818.88;;;22.15;45.86
4705;BME280;2366;51.332;6.610;2024-03-23T08:00:13;100818.75;;;22.25;45.45
4705;BME280;2366;51.332;6.610;2024-03-23T08:02:39;100819.38;;;22.93;44.62
4705;BME280;2366;51.332;6.610;2024-03-23T08:05:04;100817.19;;;22.80;43.51
4705;BME280;2366;51.332;6.610;2024-03-23T08:07:30;100817.78;;;23.31;44.82
4705;BME280;2366;51.332;6.610;2024-03-23T08:09:55;100821.31;;;23.71;42.15
4705;BME280;2366;51.332;6.610;2024-03-23T08:12:20;100821.31;;;24.26;40.08
4705;BME280;2366;51.332;6.610;2024-03-23T08:14:46;100823.91;;;24.80;37.66
4705;BME280;2366;51.332;6.610;2024-03-23T08:17:11;100834.66;;;24.73;37.14
4705;BME280;2366;51.332;6.610;2024-03-23T08:19:36;100826.53;;;21.69;39.22
4705;BME280;2366;51.332;6.610;2024-03-23T08:22:02;100828.75;;;19.72;42.57
4705;BME280;2366;51.332;6.610;2024-03-23T08:24:27;100839.25;;;17.21;45.29
4705;BME280;2366;51.332;6.610;2024-03-23T08:26:54;100841.25;;;14.20;49.52
4705;BME280;2366;51.332;6.610;2024-03-23T08:29:20;100839.81;;;13.29;53.90
4705;BME280;2366;51.332;6.610;2024-03-23T08:31:45;100855.72;;;12.52;56.03
4705;BME280;2366;51.332;6.610;2024-03-23T08:34:10;100835.53;;;12.22;58.87
4705;BME280;2366;51.332;6.610;2024-03-23T08:36:36;100824.00;;;12.49;57.04
4705;BME280;2366;51.332;6.610;2024-03-23T08:39:01;100831.34;;;12.45;56.29
4705;BME280;2366;51.332;6.610;2024-03-23T08:41:27;100831.69;;;12.66;56.90
4705;BME280;2366;51.332;6.610;2024-03-23T08:43:52;100827.69;;;12.86;56.93
4705;BME280;2366;51.332;6.610;2024-03-23T08:46:17;100840.13;;;13.11;56.54
4705;BME280;2366;51.332;6.610;2024-03-23T08:48:46;100844.69;;;13.09;56.35
4705;BME280;2366;51.332;6.610;2024-03-23T08:51:15;100848.75;;;13.28;56.94
4705;BME280;2366;51.332;6.610;2024-03-23T08:53:41;100843.47;;;16.19;51.90
4705;BME280;2366;51.332;6.610;2024-03-23T08:56:08;100841.28;;;17.29;48.39
4705;BME280;2366;51.332;6.610;2024-03-23T08:58:34;100841.06;;;16.16;48.90
4705;BME280;2366;51.332;6.610;2024-03-23T09:01:12;100855.34;;;16.37;49.58
4705;BME280;2366;51.332;6.610;2024-03-23T09:03:38;100839.78;;;15.99;50.21
4705;BME280;2366;51.332;6.610;2024-03-23T09:06:08;100847.44;;;18.11;48.15
4705;BME280;2366;51.332;6.610;2024-03-23T09:08:37;100840.47;;;19.98;43.97
4705;BME280;2366;51.332;6.610;2024-03-23T09:11:07;100840.31;;;21.58;41.30
4705;BME280;2366;51.332;6.610;2024-03-23T09:13:36;100837.78;;;23.14;38.57
4705;BME280;2366;51.332;6.610;2024-03-23T09:16:02;100831.81;;;23.66;37.80
4705;BME280;2366;51.332;6.610;2024-03-23T09:18:34;100839.63;;;23.53;36.92
4705;BME280;2366;51.332;6.610;2024-03-23T09:21:00;100826.13;;;23.92;35.70
4705;BME280;2366;51.332;6.610;2024-03-23T09:23:26;100826.25;;;22.05;38.24
4705;BME280;2366;51.332;6.610;2024-03-23T09:25:51;100836.06;;;22.06;37.07
4705;BME280;2366;51.332;6.610;2024-03-23T09:28:17;100817.72;;;20.10;39.53
4705;BME280;2366;51.332;6.610;2024-03-23T09:30:42;100818.78;;;18.01;43.27
4705;BME280;2366;51.332;6.610;2024-03-23T09:33:14;100829.72;;;17.29;45.31
4705;BME280;2366;51.332;6.610;2024-03-23T09:35:40;100829.03;;;17.77;44.58
4705;BME280;2366;51.332;6.610;2024-03-23T09:38:05;100825.16;;;17.50;44.41
4705;BME280;2366;51.332;6.610;2024-03-23T09:40:32;100828.06;;;17.47;46.29
4705;BME280;2366;51.332;6.610;2024-03-23T09:42:58;100824.78;;;19.01;43.45
4705;BME280;2366;51.332;6.610;2024-03-23T09:45:28;100817.84;;;21.15;41.03
4705;BME280;2366;51.332;6.610;2024-03-23T09:47:57;100823.56;;;22.05;36.97
4705;BME280;2366;51.332;6.610;2024-03-23T09:50:23;100826.34;;;22.71;36.30
4705;BME280;2366;51.332;6.610;2024-03-23T09:52:48;100815.25;;;21.40;36.69
4705;BME280;2366;51.332;6.610;2024-03-23T09:55:14;100806.44;;;20.51;38.38
4705;BME280;2366;51.332;6.610;2024-03-23T09:57:41;100813.09;;;20.21;39.20
4705;BME280;2366;51.332;6.610;2024-03-23T10:00:06;100801.19;;;20.23;38.83
4705;BME280;2366;51.332;6.610;2024-03-23T10:02:34;100799.53;;;19.21;40.85
4705;BME280;2366;51.332;6.610;2024-03-23T10:04:59;100790.56;;;18.93;40.32
4705;BME280;2366;51.332;6.610;2024-03-23T10:07:25;100794.28;;;17.65;39.91
4705;BME280;2366;51.332;6.610;2024-03-23T10:09:51;100791.22;;;17.30;41.50
4705;BME280;2366;51.332;6.610;2024-03-23T10:12:18;100804.16;;;16.73;42.85
4705;BME280;2366;51.332;6.610;2024-03-23T10:14:44;100806.84;;;15.98;44.17
4705;BME280;2366;51.332;6.610;2024-03-23T10:17:20;100806.66;;;15.56;45.14
4705;BME280;2366;51.332;6.610;2024-03-23T10:19:49;100824.91;;;15.51;44.92
4705;BME280;2366;51.332;6.610;2024-03-23T10:22:21;100838.03;;;15.32;45.75
4705;BME280;2366;51.332;6.610;2024-03-23T10:24:47;100833.75;;;14.95;45.45
4705;BME280;2366;51.332;6.610;2024-03-23T10:27:17;100840.19;;;15.15;45.03
4705;BME280;2366;51.332;6.610;2024-03-23T10:29:44;100836.19;;;15.66;44.80
4705;BME280;2366;51.332;6.610;2024-03-23T10:32:14;100847.41;;;16.04;43.46
4705;BME280;2366;51.332;6.610;2024-03-23T10:34:39;100864.47;;;15.80;43.93
4705;BME280;2366;51.332;6.610;2024-03-23T10:37:06;100853.41;;;15.39;45.04
4705;BME280;2366;51.332;6.610;2024-03-23T10:39:36;100862.53;;;15.14;45.89
4705;BME280;2366;51.332;6.610;2024-03-23T10:42:03;100856.38;;;14.67;48.38
4705;BME280;2366;51.332;6.610;2024-03-23T10:44:29;100854.13;;;14.02;49.12
4705;BME280;2366;51.332;6.610;2024-03-23T10:46:56;100834.72;;;14.24;49.55
4705;BME280;2366;51.332;6.610;2024-03-23T10:49:35;100831.41;;;14.79;49.00
4705;BME280;2366;51.332;6.610;2024-03-23T10:52:02;100827.56;;;15.17;48.04
4705;BME280;2366;51.332;6.610;2024-03-23T10:54:29;100822.94;;;15.76;46.28
4705;BME280;2366;51.332;6.610;2024-03-23T10:59:27;100806.91;;;16.82;43.68
4705;BME280;2366;51.332;6.610;2024-03-23T11:01:58;100814.72;;;17.16;44.48
4705;BME280;2366;51.332;6.610;2024-03-23T11:04:35;100811.91;;;17.18;43.39
4705;BME280;2366;51.332;6.610;2024-03-23T11:09:51;100806.44;;;16.56;44.82
4705;BME280;2366;51.332;6.610;2024-03-23T11:14:45;100800.47;;;16.11;45.84
4705;BME280;2366;51.332;6.610;2024-03-23T11:17:11;100798.66;;;16.32;46.44
4705;BME280;2366;51.332;6.610;2024-03-23T11:19:37;100808.41;;;16.54;45.23
4705;BME280;2366;51.332;6.610;2024-03-23T11:22:03;100808.09;;;16.69;44.68
4705;BME280;2366;51.332;6.610;2024-03-23T11:24:30;100815.16;;;16.16;45.60
4705;BME280;2366;51.332;6.610;2024-03-23T11:26:55;100808.97;;;16.37;45.08
4705;BME280;2366;51.332;6.610;2024-03-23T11:29:21;100809.19;;;16.45;45.14
4705;BME280;2366;51.332;6.610;2024-03-23T11:31:51;100807.69;;;16.31;45.57
4705;BME280;2366;51.332;6.610;2024-03-23T11:34:17;100804.09;;;16.42;44.70
4705;BME280;2366;51.332;6.610;2024-03-23T11:36:44;100843.34;;;16.20;46.49
4705;BME280;2366;51.332;6.610;2024-03-23T11:39:19;100863.59;;;13.82;50.53
4705;BME280;2366;51.332;6.610;2024-03-23T11:41:56;100853.22;;;13.27;52.29
4705;BME280;2366;51.332;6.610;2024-03-23T11:44:23;100855.69;;;13.43;52.83
4705;BME280;2366;51.332;6.610;2024-03-23T11:46:51;100849.78;;;13.51;53.97
4705;BME280;2366;51.332;6.610;2024-03-23T11:49:29;100833.31;;;13.33;52.75
4705;BME280;2366;51.332;6.610;2024-03-23T11:51:56;100816.13;;;13.50;52.11
4705;BME280;2366;51.332;6.610;2024-03-23T11:54:22;100818.19;;;13.70;51.58
4705;BME280;2366;51.332;6.610;2024-03-23T11:56:57;100806.28;;;14.35;50.75
4705;BME280;2366;51.332;6.610;2024-03-23T11:59:39;100812.94;;;14.65;50.53
4705;BME280;2366;51.332;6.610;2024-03-23T12:02:13;100800.25;;;15.25;48.90
4705;BME280;2366;51.332;6.610;2024-03-23T12:04:41;100803.00;;;15.80;48.85
4705;BME280;2366;51.332;6.610;2024-03-23T12:07:18;100807.25;;;16.15;48.16
4705;BME280;2366;51.332;6.610;2024-03-23T12:09:44;100801.72;;;16.28;48.77
4705;BME280;2366;51.332;6.610;2024-03-23T12:12:15;100801.97;;;16.57;47.17
4705;BME280;2366;51.332;6.610;2024-03-23T12:14:45;100803.72;;;16.47;47.84
4705;BME280;2366;51.332;6.610;2024-03-23T12:17:14;100799.59;;;16.42;47.27
4705;BME280;2366;51.332;6.610;2024-03-23T12:19:41;100788.50;;;16.68;47.12
4705;BME280;2366;51.332;6.610;2024-03-23T12:22:10;100795.03;;;16.33;46.22
4705;BME280;2366;51.332;6.610;2024-03-23T12:24:35;100788.09;;;16.52;46.08
4705;BME280;2366;51.332;6.610;2024-03-23T12:27:04;100788.69;;;16.34;46.47
4705;BME280;2366;51.332;6.610;2024-03-23T12:29:33;100776.53;;;16.09;47.13
4705;BME280;2366;51.332;6.610;2024-03-23T12:32:00;100793.28;;;15.68;47.22
4705;BME280;2366;51.332;6.610;2024-03-23T12:34:26;100799.19;;;15.05;48.82
4705;BME280;2366;51.332;6.610;2024-03-23T12:36:51;100799.34;;;14.57;49.96
4705;BME280;2366;51.332;6.610;2024-03-23T12:39:17;100795.75;;;14.92;49.01
4705;BME280;2366;51.332;6.610;2024-03-23T12:41:43;100792.00;;;15.28;47.55
4705;BME280;2366;51.332;6.610;2024-03-23T12:44:08;100797.75;;;15.90;47.08
4705;BME280;2366;51.332;6.610;2024-03-23T12:46:39;100781.13;;;15.86;44.85
4705;BME280;2366;51.332;6.610;2024-03-23T12:49:05;100797.44;;;16.57;45.35
4705;BME280;2366;51.332;6.610;2024-03-23T12:51:31;100802.31;;;16.52;43.98
4705;BME280;2366;51.332;6.610;2024-03-23T12:53:57;100783.41;;;16.23;44.29
4705;BME280;2366;51.332;6.610;2024-03-23T12:56:22;100793.44;;;16.10;44.89
4705;BME280;2366;51.332;6.610;2024-03-23T12:58:47;100791.00;;;15.74;44.31
4705;BME280;2366;51.332;6.610;2024-03-23T13:01:19;100793.44;;;16.10;45.07
4705;BME280;2366;51.332;6.610;2024-03-23T13:03:46;100810.19;;;15.79;44.25
4705;BME280;2366;51.332;6.610;2024-03-23T13:06:12;100804.72;;;15.81;44.30
4705;BME280;2366;51.332;6.610;2024-03-23T13:08:38;100799.78;;;14.97;44.04
4705;BME280;2366;51.332;6.610;2024-03-23T13:11:05;100793.59;;;15.08;44.54
4705;BME280;2366;51.332;6.610;2024-03-23T13:13:31;100789.72;;;15.01;43.75
4705;BME280;2366;51.332;6.610;2024-03-23T13:15:57;100789.47;;;15.04;44.12
4705;BME280;2366;51.332;6.610;2024-03-23T13:18:22;100781.69;;;15.24;44.33
4705;BME280;2366;51.332;6.610;2024-03-23T13:20:48;100780.91;;;14.65;44.72
4705;BME280;2366;51.332;6.610;2024-03-23T13:23:13;100774.63;;;15.11;44.65
4705;BME280;2366;51.332;6.610;2024-03-23T13:25:38;100777.22;;;15.90;44.08
4705;BME280;2366;51.332;6.610;2024-03-23T13:28:04;100778.88;;;16.23;42.30
4705;BME280;2366;51.332;6.610;2024-03-23T13:30:29;100774.75;;;17.03;41.87
4705;BME280;2366;51.332;6.610;2024-03-23T13:32:55;100775.97;;;16.90;40.98
4705;BME280;2366;51.332;6.610;2024-03-23T13:35:21;100780.03;;;16.42;40.76
4705;BME280;2366;51.332;6.610;2024-03-23T13:37:46;100769.78;;;15.94;41.41
4705;BME280;2366;51.332;6.610;2024-03-23T13:40:12;100770.66;;;15.94;41.97
4705;BME280;2366;51.332;6.610;2024-03-23T13:42:37;100770.25;;;15.33;41.66
4705;BME280;2366;51.332;6.610;2024-03-23T13:45:03;100772.44;;;15.39;42.61
4705;BME280;2366;51.332;6.610;2024-03-23T13:47:29;100761.78;;;14.94;43.60
4705;BME280;2366;51.332;6.610;2024-03-23T13:49:54;100761.91;;;15.04;43.39
4705;BME280;2366;51.332;6.610;2024-03-23T13:52:21;100765.91;;;14.75;43.22
4705;BME280;2366;51.332;6.610;2024-03-23T13:54:48;100763.13;;;14.30;44.15
4705;BME280;2366;51.332;6.610;2024-03-23T13:57:14;100760.50;;;14.53;43.94
4705;BME280;2366;51.332;6.610;2024-03-23T13:59:39;100768.34;;;14.90;43.78
4705;BME280;2366;51.332;6.610;2024-03-23T14:02:05;100753.06;;;15.14;42.80
4705;BME280;2366;51.332;6.610;2024-03-23T14:04:30;100768.41;;;15.56;42.13
4705;BME280;2366;51.332;6.610;2024-03-23T14:06:58;100768.22;;;15.91;41.86